Time;durP1;ratioP1;P1;durP2;ratioP2;P2;SDS_P1;SDS_P2;PMS_P1;PMS_P2;Temp;Humidity;BMP_temperature;BMP_pressure;BME280_temperature;BME280_humidity;BME280_pressure;Samples;Min_cycle;Max_cycle;Signal;HPM_P1;HPM_P2
2020/12/17 00:01:11;;;;;;;23.57;17.17;;;8.70;99.90;;;;;;5074097;28;20478;-46
2020/12/17 00:03:38;;;;;;;25.17;17.27;;;8.90;99.90;;;;;;5073979;28;20467;-47
2020/12/17 00:06:04;;;;;;;22.60;17.63;;;9.00;99.90;;;;;;5073347;28;20544;-47
2020/12/17 00:08:32;;;;;;;24.73;17.47;;;9.00;99.90;;;;;;5073668;28;20539;-47
2020/12/17 00:10:58;;;;;;;25.23;19.20;;;8.80;99.90;;;;;;5074084;28;20579;-47
2020/12/17 00:13:25;;;;;;;23.23;17.90;;;8.70;99.90;;;;;;5073798;28;20959;-47
2020/12/17 00:15:51;;;;;;;27.47;19.13;;;8.80;99.90;;;;;;5074131;28;20437;-47
2020/12/17 00:18:18;;;;;;;23.53;17.57;;;8.80;99.90;;;;;;5073911;28;20498;-47
2020/12/17 00:20:44;;;;;;;28.20;17.00;;;8.90;99.90;;;;;;5073919;28;20486;-47
2020/12/17 00:23:11;;;;;;;25.20;18.70;;;8.80;99.90;;;;;;5072631;28;20818;-46
2020/12/17 00:25:40;;;;;;;20.53;16.33;;;8.90;99.90;;;;;;5073911;28;20432;-47
2020/12/17 00:28:07;;;;;;;25.53;18.23;;;8.90;99.90;;;;;;5073772;28;20535;-47
2020/12/17 00:30:33;;;;;;;23.20;16.37;;;8.90;99.90;;;;;;5073682;28;20793;-46
2020/12/17 00:33:00;;;;;;;24.80;18.70;;;8.90;99.90;;;;;;5073046;28;20435;-46
2020/12/17 00:35:27;;;;;;;23.37;18.00;;;8.90;99.90;;;;;;5073836;28;20411;-46
2020/12/17 00:37:53;;;;;;;21.80;17.10;;;8.80;99.90;;;;;;5073137;28;20947;-46
2020/12/17 00:40:20;;;;;;;24.10;17.80;;;8.90;99.90;;;;;;5073683;28;20468;-46
2020/12/17 00:42:47;;;;;;;21.30;17.10;;;8.70;99.90;;;;;;5073332;28;20404;-46
2020/12/17 00:45:15;;;;;;;22.67;17.03;;;9.00;99.90;;;;;;5073686;28;20852;-46
2020/12/17 00:47:42;;;;;;;23.33;17.93;;;8.70;99.90;;;;;;5073408;28;20426;-46
2020/12/17 00:50:10;;;;;;;22.47;17.57;;;8.60;99.90;;;;;;5073490;28;20460;-46
2020/12/17 00:52:37;;;;;;;27.20;18.47;;;8.40;99.90;;;;;;5073078;28;20895;-46
2020/12/17 00:55:04;;;;;;;21.20;17.27;;;8.10;99.90;;;;;;5073321;28;20451;-46
2020/12/17 00:57:31;;;;;;;23.63;16.90;;;8.60;99.90;;;;;;5073319;28;20436;-46
2020/12/17 00:59:59;;;;;;;26.43;17.93;;;8.80;99.90;;;;;;5071804;28;20445;-46
2020/12/17 01:02:25;;;;;;;27.00;18.87;;;8.60;99.90;;;;;;5072540;28;20463;-46
2020/12/17 01:04:52;;;;;;;20.97;16.20;;;8.90;99.90;;;;;;5073420;28;20433;-46
2020/12/17 01:07:18;;;;;;;24.70;18.43;;;8.50;99.90;;;;;;5071987;28;20827;-46
2020/12/17 01:09:45;;;;;;;21.87;16.63;;;8.90;99.90;;;;;;5072995;28;20959;-46
2020/12/17 01:12:12;;;;;;;24.70;18.50;;;8.60;99.90;;;;;;5072980;28;20921;-46
2020/12/17 01:14:39;;;;;;;24.10;17.20;;;8.50;99.90;;;;;;5072592;28;20432;-46
2020/12/17 01:17:07;;;;;;;21.63;16.87;;;8.60;99.90;;;;;;5072840;28;20426;-47
2020/12/17 01:19:34;;;;;;;25.17;18.73;;;8.60;99.90;;;;;;5072903;28;20437;-46
2020/12/17 01:22:01;;;;;;;20.97;17.50;;;8.50;99.90;;;;;;5072733;28;20474;-47
2020/12/17 01:24:28;;;;;;;23.83;17.20;;;8.50;99.90;;;;;;5072330;28;20428;-47
2020/12/17 01:26:55;;;;;;;20.80;16.33;;;8.50;99.90;;;;;;5072616;28;20498;-47
2020/12/17 01:29:21;;;;;;;21.80;16.30;;;8.60;99.90;;;;;;5072533;28;20400;-46
2020/12/17 01:31:48;;;;;;;22.60;17.73;;;8.70;99.90;;;;;;5072471;28;20469;-47
2020/12/17 01:34:16;;;;;;;23.73;16.57;;;8.60;99.90;;;;;;5071962;28;20559;-46
2020/12/17 01:36:42;;;;;;;21.70;17.07;;;8.40;99.90;;;;;;5072406;28;20452;-47
2020/12/17 01:39:09;;;;;;;21.73;17.40;;;8.60;99.90;;;;;;5071144;28;20479;-46
2020/12/17 01:41:35;;;;;;;21.00;16.37;;;8.40;99.90;;;;;;5071354;28;21015;-46
2020/12/17 01:44:04;;;;;;;23.20;17.17;;;8.40;99.90;;;;;;5071930;28;20403;-46
2020/12/17 01:46:31;;;;;;;22.13;17.00;;;8.60;99.90;;;;;;5071931;28;20429;-46
2020/12/17 01:49:01;;;;;;;23.43;17.07;;;8.50;99.90;;;;;;5072285;28;20432;-46
2020/12/17 01:51:28;;;;;;;21.30;16.70;;;8.40;99.90;;;;;;5072293;28;20403;-46
2020/12/17 01:53:55;;;;;;;23.37;16.73;;;8.70;99.90;;;;;;5071833;28;21003;-47
2020/12/17 01:56:24;;;;;;;21.67;15.97;;;8.80;99.90;;;;;;5071977;28;20455;-47
2020/12/17 01:59:04;;;;;;;27.30;17.60;;;8.70;99.90;;;;;;5072044;28;20403;-46
2020/12/17 02:01:31;;;;;;;20.33;15.43;;;8.90;99.90;;;;;;5071850;28;20453;-47
2020/12/17 02:03:58;;;;;;;25.70;17.00;;;8.40;99.90;;;;;;5071661;28;20440;-47
2020/12/17 02:06:25;;;;;;;22.90;16.97;;;8.60;99.90;;;;;;5071665;28;20449;-46
2020/12/17 02:08:53;;;;;;;24.00;17.13;;;8.10;99.90;;;;;;5071023;28;20814;-47
2020/12/17 02:11:20;;;;;;;21.23;16.07;;;8.50;99.90;;;;;;5071870;28;20940;-47
2020/12/17 02:13:47;;;;;;;23.00;17.30;;;8.60;99.90;;;;;;5071566;28;20402;-46
2020/12/17 02:16:15;;;;;;;23.07;16.90;;;8.40;99.90;;;;;;5071742;28;20440;-47
2020/12/17 02:18:43;;;;;;;22.53;17.37;;;8.20;99.90;;;;;;5070547;28;20456;-47
2020/12/17 02:21:09;;;;;;;23.73;18.60;;;8.30;99.90;;;;;;5071705;28;20471;-46
2020/12/17 02:23:37;;;;;;;24.20;17.20;;;8.30;99.90;;;;;;5071373;28;20821;-46
2020/12/17 02:26:05;;;;;;;23.70;17.00;;;8.20;99.90;;;;;;5071659;28;20485;-46
2020/12/17 02:28:32;;;;;;;23.47;17.80;;;8.00;99.90;;;;;;5071806;28;20436;-47
2020/12/17 02:30:58;;;;;;;22.10;17.10;;;8.20;99.90;;;;;;5071786;28;20436;-47
2020/12/17 02:33:25;;;;;;;26.03;17.97;;;8.20;99.90;;;;;;5071352;28;20438;-46
2020/12/17 02:35:51;;;;;;;22.63;17.10;;;7.80;99.90;;;;;;5071570;28;20426;-46
2020/12/17 02:38:18;;;;;;;23.47;17.47;;;8.00;99.90;;;;;;5070874;28;20430;-46
2020/12/17 02:40:44;;;;;;;22.00;17.20;;;8.20;99.90;;;;;;5071097;28;20479;-47
2020/12/17 02:43:12;;;;;;;25.73;18.83;;;7.50;99.90;;;;;;5071334;28;20793;-46
2020/12/17 02:45:49;;;;;;;22.07;16.50;;;7.70;99.90;;;;;;5071496;28;20435;-47
2020/12/17 02:48:17;;;;;;;22.40;17.80;;;7.70;99.90;;;;;;5071314;28;20484;-46
2020/12/17 02:50:45;;;;;;;25.37;17.87;;;7.80;99.90;;;;;;5071665;28;20445;-47
2020/12/17 02:53:12;;;;;;;28.67;16.77;;;7.80;99.90;;;;;;5071246;28;20507;-47
2020/12/17 02:55:39;;;;;;;24.33;17.27;;;7.90;99.90;;;;;;5071430;28;20410;-46
2020/12/17 02:58:06;;;;;;;22.27;16.33;;;7.70;99.90;;;;;;5074072;28;21050;-47
2020/12/17 03:00:34;;;;;;;23.57;17.93;;;7.50;99.90;;;;;;5074911;28;20467;-46
2020/12/17 03:03:01;;;;;;;21.97;16.80;;;7.70;99.90;;;;;;5075062;28;20910;-46
2020/12/17 03:05:27;;;;;;;23.77;17.53;;;7.70;99.90;;;;;;5075345;28;20459;-46
2020/12/17 03:07:55;;;;;;;21.93;16.87;;;7.70;99.90;;;;;;5075657;28;20486;-46
2020/12/17 03:10:22;;;;;;;27.80;18.33;;;7.70;99.90;;;;;;5075296;28;20454;-46
2020/12/17 03:12:48;;;;;;;23.97;17.20;;;7.50;99.90;;;;;;5074904;28;20801;-46
2020/12/17 03:15:15;;;;;;;23.00;17.77;;;7.50;99.90;;;;;;5075311;28;20795;-45
2020/12/17 03:17:42;;;;;;;25.40;19.50;;;7.70;99.90;;;;;;5075031;28;20501;-45
2020/12/17 03:20:11;;;;;;;25.47;18.73;;;7.50;99.90;;;;;;5075054;28;20449;-45
2020/12/17 03:22:38;;;;;;;22.97;18.13;;;7.70;99.90;;;;;;5074718;28;20421;-46
2020/12/17 03:25:07;;;;;;;27.30;20.07;;;7.70;99.90;;;;;;5075065;28;20474;-46
2020/12/17 03:27:33;;;;;;;25.60;18.80;;;7.30;99.90;;;;;;5074931;28;20939;-45
2020/12/17 03:30:00;;;;;;;25.17;18.30;;;7.40;99.90;;;;;;5074390;28;20402;-46
2020/12/17 03:32:27;;;;;;;27.97;19.80;;;7.40;99.90;;;;;;5072438;28;20543;-46
2020/12/17 03:34:54;;;;;;;23.57;19.20;;;7.40;99.90;;;;;;5074536;28;20416;-46
2020/12/17 03:37:21;;;;;;;23.83;17.90;;;7.40;99.90;;;;;;5074819;28;20425;-45
2020/12/17 03:39:47;;;;;;;24.20;18.10;;;7.20;99.90;;;;;;5074688;28;20462;-44
2020/12/17 03:42:14;;;;;;;24.57;18.60;;;7.30;99.90;;;;;;5074665;28;20501;-46
2020/12/17 03:44:40;;;;;;;27.70;19.50;;;7.40;99.90;;;;;;5074454;28;20434;-45
2020/12/17 03:47:07;;;;;;;22.37;17.13;;;7.20;99.90;;;;;;5074715;28;20426;-46
2020/12/17 03:49:33;;;;;;;23.20;18.20;;;7.50;99.90;;;;;;5074893;28;20488;-45
2020/12/17 03:52:01;;;;;;;26.23;19.63;;;7.30;99.90;;;;;;5074559;28;20514;-46
2020/12/17 03:54:27;;;;;;;27.50;19.47;;;7.00;99.90;;;;;;5074505;28;20469;-46
2020/12/17 03:56:53;;;;;;;27.77;19.10;;;7.50;99.90;;;;;;5074448;28;20466;-46
2020/12/17 03:59:20;;;;;;;25.03;18.50;;;7.40;99.90;;;;;;5074220;28;20547;-46
2020/12/17 04:01:46;;;;;;;27.83;19.27;;;7.30;99.90;;;;;;5073479;28;20807;-46
2020/12/17 04:04:13;;;;;;;26.27;19.53;;;7.20;99.90;;;;;;5073911;28;20909;-47
2020/12/17 04:06:39;;;;;;;28.83;18.47;;;7.50;99.90;;;;;;5074090;28;20554;-47
2020/12/17 04:09:07;;;;;;;29.20;19.83;;;7.50;99.90;;;;;;5073773;28;20509;-47
2020/12/17 04:11:33;;;;;;;25.57;18.63;;;7.50;99.90;;;;;;5074108;28;20444;-46
2020/12/17 04:14:00;;;;;;;28.07;19.00;;;7.20;99.90;;;;;;5073813;28;20430;-46
2020/12/17 04:16:26;;;;;;;24.13;18.50;;;7.10;99.90;;;;;;5074054;28;20531;-46
2020/12/17 04:18:53;;;;;;;28.60;20.23;;;7.40;99.90;;;;;;5074170;28;20422;-45
2020/12/17 04:21:19;;;;;;;25.50;19.03;;;6.90;99.90;;;;;;5073982;28;20555;-47
2020/12/17 04:23:46;;;;;;;28.73;20.40;;;7.10;99.90;;;;;;5073628;28;20475;-45
2020/12/17 04:26:14;;;;;;;25.10;19.03;;;7.10;99.90;;;;;;5073827;28;20458;-46
2020/12/17 04:28:40;;;;;;;29.20;19.57;;;7.10;99.90;;;;;;5073832;28;20433;-46
2020/12/17 04:31:07;;;;;;;25.03;19.20;;;7.00;99.90;;;;;;5072942;28;20465;-46
2020/12/17 04:33:34;;;;;;;28.00;19.57;;;6.90;99.90;;;;;;5073356;28;20556;-46
2020/12/17 04:36:00;;;;;;;31.40;19.70;;;7.20;99.90;;;;;;5073694;28;20438;-45
2020/12/17 04:38:27;;;;;;;27.17;18.80;;;6.90;99.90;;;;;;5073686;28;20443;-45
2020/12/17 04:40:54;;;;;;;28.80;19.80;;;7.20;99.90;;;;;;5073364;28;20561;-47
2020/12/17 04:43:21;;;;;;;27.07;21.07;;;7.40;99.90;;;;;;5073206;28;20462;-47
2020/12/17 04:45:49;;;;;;;26.47;20.50;;;6.90;99.90;;;;;;5073441;28;20437;-48
2020/12/17 04:48:18;;;;;;;25.13;19.80;;;7.10;99.90;;;;;;5073439;28;20548;-48
2020/12/17 04:50:45;;;;;;;29.37;21.60;;;6.80;99.90;;;;;;5073534;28;20438;-47
2020/12/17 04:53:15;;;;;;;30.80;20.50;;;6.80;99.90;;;;;;5073132;28;20398;-47
2020/12/17 04:55:43;;;;;;;23.80;19.50;;;6.80;99.90;;;;;;5073224;28;20440;-46
2020/12/17 04:58:10;;;;;;;25.43;19.00;;;7.20;99.90;;;;;;5073131;28;20457;-46
2020/12/17 05:00:40;;;;;;;26.37;20.37;;;6.90;99.90;;;;;;5072835;28;20474;-46
2020/12/17 05:03:13;;;;;;;29.13;20.37;;;6.80;99.90;;;;;;5072119;28;20954;-46
2020/12/17 05:05:39;;;;;;;26.70;19.73;;;6.80;99.90;;;;;;5073140;28;20426;-47
2020/12/17 05:08:06;;;;;;;24.60;19.60;;;7.10;99.90;;;;;;5072978;28;20594;-46
2020/12/17 05:10:33;;;;;;;30.63;20.07;;;7.10;99.90;;;;;;5072934;28;20930;-47
2020/12/17 05:12:59;;;;;;;29.07;20.50;;;7.10;99.90;;;;;;5072627;28;20498;-47
2020/12/17 05:15:26;;;;;;;29.87;21.53;;;7.00;99.90;;;;;;5073000;28;20827;-47
2020/12/17 05:17:54;;;;;;;28.13;19.20;;;6.80;99.90;;;;;;5073074;28;20445;-47
2020/12/17 05:20:20;;;;;;;30.53;20.53;;;7.00;99.90;;;;;;5071840;28;20491;-48
2020/12/17 05:22:47;;;;;;;26.40;19.57;;;6.80;99.90;;;;;;5072504;28;20457;-47
2020/12/17 05:25:15;;;;;;;34.50;20.23;;;7.10;99.90;;;;;;5072720;28;20517;-47
2020/12/17 05:27:42;;;;;;;28.30;19.83;;;7.00;99.90;;;;;;5072568;28;20450;-48
2020/12/17 05:30:09;;;;;;;29.47;19.83;;;6.90;99.90;;;;;;5071590;28;20504;-48
2020/12/17 05:32:36;;;;;;;30.00;21.17;;;6.80;99.90;;;;;;5072174;28;20445;-48
2020/12/17 05:35:05;;;;;;;27.37;20.80;;;7.00;99.90;;;;;;5072606;28;20430;-48
2020/12/17 05:37:32;;;;;;;30.55;22.55;;;6.90;99.90;;;;;;5072249;28;20424;-48
2020/12/17 05:40:00;;;;;;;31.37;22.87;;;6.90;99.90;;;;;;5072451;28;20196;-48
2020/12/17 05:42:28;;;;;;;32.77;22.47;;;6.80;99.90;;;;;;5071740;28;20985;-48
2020/12/17 05:44:55;;;;;;;34.97;21.87;;;6.70;99.90;;;;;;5072344;28;20515;-48
2020/12/17 05:47:22;;;;;;;31.87;22.57;;;6.70;99.90;;;;;;5072081;28;20998;-48
2020/12/17 05:49:48;;;;;;;30.50;22.03;;;6.60;99.90;;;;;;5072011;28;20491;-47
2020/12/17 05:52:17;;;;;;;32.40;23.13;;;6.70;99.90;;;;;;5072123;28;20882;-46
2020/12/17 05:55:00;;;;;;;30.27;21.50;;;6.90;99.90;;;;;;5071947;28;20429;-47
2020/12/17 05:57:27;;;;;;;31.00;21.30;;;6.90;99.90;;;;;;5070477;28;20513;-47
2020/12/17 05:59:55;;;;;;;32.50;20.40;;;7.00;99.90;;;;;;5071867;28;20484;-47
2020/12/17 06:02:24;;;;;;;31.87;20.97;;;6.90;99.90;;;;;;5070256;28;20535;-47
2020/12/17 06:05:16;;;;;;;30.33;21.60;;;6.60;99.90;;;;;;5071821;28;20434;-48
2020/12/17 06:07:51;;;;;;;29.47;21.07;;;6.80;99.90;;;;;;5051602;28;20597;-46
2020/12/17 06:10:19;;;;;;;31.80;21.43;;;6.60;99.90;;;;;;5071663;28;20947;-47
2020/12/17 06:12:47;;;;;;;30.65;20.77;;;6.50;99.90;;;;;;5071470;28;20525;-47
2020/12/17 06:15:17;;;;;;;29.73;22.10;;;6.50;99.90;;;;;;5071765;28;20226;-47
2020/12/17 06:17:48;;;;;;;40.50;22.63;;;6.60;99.90;;;;;;5071114;28;20220;-46
2020/12/17 06:20:16;;;;;;;29.73;21.37;;;6.40;99.90;;;;;;5071578;28;20726;-48
2020/12/17 06:22:49;;;;;;;31.77;20.10;;;6.50;99.90;;;;;;5071236;28;20411;-46
2020/12/17 06:25:17;;;;;;;34.78;21.67;;;6.60;99.90;;;;;;5071700;28;20437;-47
2020/12/17 06:27:46;;;;;;;27.33;19.87;;;6.40;99.90;;;;;;5071588;28;20216;-47
2020/12/17 06:30:16;;;;;;;32.75;21.15;;;6.50;99.90;;;;;;5070707;28;20507;-47
2020/12/17 06:32:43;;;;;;;37.00;22.38;;;6.50;99.90;;;;;;5070417;28;20607;-47
2020/12/17 06:35:22;;;;;;;33.15;21.40;;;6.50;99.90;;;;;;5070978;28;20192;-48
2020/12/17 06:37:51;;;;;;;34.50;21.23;;;6.60;99.90;;;;;;5069874;28;20707;-48
2020/12/17 06:40:26;;;;;;;32.53;20.20;;;6.50;99.90;;;;;;5071469;28;20411;-48
2020/12/17 06:42:53;;;;;;;42.25;20.45;;;6.60;99.90;;;;;;5071251;28;20429;-47
2020/12/17 06:45:27;;;;;;;36.50;22.20;;;6.40;99.90;;;;;;5069649;28;20633;-48
2020/12/17 06:47:54;;;;;;;30.85;21.55;;;6.50;99.90;;;;;;5071068;28;20945;-48
2020/12/17 06:50:27;;;;;;;28.23;19.77;;;6.30;99.90;;;;;;5071098;28;20287;-48
2020/12/17 06:53:08;;;;;;;30.40;21.00;;;6.40;99.90;;;;;;5070982;28;20432;-48
2020/12/17 06:55:45;;;;;;;32.33;21.13;;;6.50;99.90;;;;;;5071301;28;20195;-46
2020/12/17 06:58:22;;;;;;;33.38;21.80;;;6.20;99.90;;;;;;5071152;28;20245;-48
2020/12/17 07:00:51;;;;;;;30.60;21.60;;;6.20;99.90;;;;;;5070016;28;20242;-47
2020/12/17 07:03:45;;;;;;;29.58;20.70;;;6.20;99.90;;;;;;5070861;28;20211;-49
2020/12/17 07:06:13;;;;;;;30.80;20.07;;;6.30;99.90;;;;;;5070839;28;20693;-47
2020/12/17 07:08:41;;;;;;;34.90;21.48;;;6.10;99.90;;;;;;5070923;28;20438;-47
2020/12/17 07:11:38;;;;;;;29.47;20.00;;;6.30;99.90;;;;;;5070945;28;20282;-47
2020/12/17 07:14:06;;;;;;;30.10;20.40;;;6.20;99.90;;;;;;5070605;28;20463;-49
2020/12/17 07:16:35;;;;;;;27.05;19.48;;;6.20;99.90;;;;;;5070338;28;20450;-47
2020/12/17 07:19:39;;;;;;;35.80;21.45;;;6.50;99.90;;;;;;5071449;28;20188;-48
2020/12/17 07:22:06;;;;;;;34.33;22.85;;;6.30;99.90;;;;;;5028695;28;20228;-47
2020/12/17 07:24:35;;;;;;;34.27;22.37;;;6.50;99.90;;;;;;5028366;28;20332;-48
2020/12/17 07:27:06;;;;;;;32.53;21.50;;;6.70;99.90;;;;;;5049373;28;20946;-47
2020/12/17 07:29:40;;;;;;;34.22;21.33;;;6.50;99.90;;;;;;5070360;28;20202;-46
2020/12/17 07:32:24;;;;;;;33.67;23.00;;;6.60;99.90;;;;;;5050683;28;20200;-48
2020/12/17 07:34:51;;;;;;;29.65;21.65;;;6.70;99.90;;;;;;5050897;28;20196;-47
2020/12/17 07:37:37;;;;;;;25.85;19.52;;;6.60;99.90;;;;;;5051116;28;20224;-48
2020/12/17 07:40:14;;;;;;;32.38;22.02;;;6.40;99.90;;;;;;5050527;28;20196;-48
2020/12/17 07:42:42;;;;;;;33.90;21.90;;;6.80;99.90;;;;;;5050776;28;20219;-48
2020/12/17 07:45:09;;;;;;;36.67;22.47;;;6.80;99.90;;;;;;5052938;28;20820;-48
2020/12/17 07:47:35;;;;;;;29.80;19.70;;;6.90;99.90;;;;;;5054419;28;20475;-47
2020/12/17 07:50:02;;;;;;;30.10;21.50;;;6.80;99.90;;;;;;5054182;28;20530;-48
2020/12/17 07:52:30;;;;;;;31.73;20.80;;;6.90;99.90;;;;;;5054494;28;20873;-49
2020/12/17 07:54:58;;;;;;;31.70;18.77;;;6.80;99.90;;;;;;5074312;28;20465;-48
2020/12/17 07:57:25;;;;;;;30.43;20.27;;;7.00;99.90;;;;;;5074876;28;20428;-47
2020/12/17 07:59:53;;;;;;;37.03;22.03;;;6.80;99.90;;;;;;5073768;28;20927;-48
2020/12/17 08:02:19;;;;;;;29.85;19.70;;;6.80;99.90;;;;;;5073647;28;20995;-47
2020/12/17 08:04:47;;;;;;;29.90;20.20;;;6.90;99.90;;;;;;5074322;28;20283;-47
2020/12/17 08:07:14;;;;;;;26.97;20.70;;;7.10;99.90;;;;;;5073830;28;20469;-47
2020/12/17 08:09:41;;;;;;;27.80;20.37;;;7.10;99.90;;;;;;5074246;28;20433;-47
2020/12/17 08:12:10;;;;;;;29.33;20.37;;;6.90;99.90;;;;;;5074314;28;20421;-47
2020/12/17 08:14:37;;;;;;;30.80;21.17;;;7.40;99.90;;;;;;5073615;28;20923;-48
2020/12/17 08:17:06;;;;;;;31.13;21.43;;;7.10;99.90;;;;;;5072311;28;20518;-47
2020/12/17 08:19:33;;;;;;;33.47;21.97;;;7.30;99.90;;;;;;5073646;28;20425;-47
2020/12/17 08:22:01;;;;;;;28.70;21.00;;;6.90;99.90;;;;;;5073390;28;20469;-47
2020/12/17 08:24:28;;;;;;;30.43;20.10;;;7.10;99.90;;;;;;5073115;28;20949;-47
2020/12/17 08:26:55;;;;;;;35.10;22.47;;;7.10;99.90;;;;;;5073357;28;20503;-47
2020/12/17 08:29:23;;;;;;;30.63;21.20;;;7.20;99.90;;;;;;5072686;28;20405;-47
2020/12/17 08:31:51;;;;;;;27.67;19.80;;;7.40;99.90;;;;;;5073848;28;20429;-48
2020/12/17 08:34:18;;;;;;;30.03;20.77;;;7.10;99.90;;;;;;5072798;28;20881;-47
2020/12/17 08:36:45;;;;;;;30.17;20.87;;;7.20;99.90;;;;;;5073188;28;20446;-47
2020/12/17 08:39:14;;;;;;;30.50;19.50;;;7.10;99.90;;;;;;5073653;28;20463;-47
2020/12/17 08:41:42;;;;;;;30.90;20.37;;;7.40;99.90;;;;;;5073084;28;20471;-48
2020/12/17 08:44:11;;;;;;;29.67;20.13;;;7.20;99.90;;;;;;5073158;28;20536;-48
2020/12/17 08:46:46;;;;;;;28.40;21.10;;;7.20;99.90;;;;;;5073323;28;20537;-46
2020/12/17 08:49:14;;;;;;;32.27;20.43;;;7.40;99.90;;;;;;5071817;28;20446;-48
2020/12/17 08:51:45;;;;;;;26.77;19.83;;;7.50;99.90;;;;;;5073429;28;20428;-47
2020/12/17 08:54:23;;;;;;;34.20;20.20;;;7.20;99.90;;;;;;5072698;28;20416;-47
2020/12/17 08:56:56;;;;;;;28.00;19.30;;;7.30;99.90;;;;;;5073219;28;20447;-47
2020/12/17 08:59:23;;;;;;;27.73;20.20;;;7.50;99.90;;;;;;5072790;28;20448;-47
2020/12/17 09:01:50;;;;;;;30.20;19.50;;;7.40;99.90;;;;;;5071995;28;20527;-47
2020/12/17 09:04:17;;;;;;;34.20;20.27;;;7.70;99.90;;;;;;5072791;28;20989;-48
2020/12/17 09:06:51;;;;;;;26.90;19.20;;;7.40;99.90;;;;;;5093058;22;20447;-49
2020/12/17 09:09:25;;;;;;;27.40;19.97;;;7.70;99.90;;;;;;5053102;28;20931;-51
2020/12/17 09:11:54;;;;;;;30.93;20.37;;;7.50;99.90;;;;;;5032425;28;20425;-50
2020/12/17 09:14:29;;;;;;;31.43;19.37;;;7.80;99.90;;;;;;5031473;28;20453;-49
2020/12/17 09:17:06;;;;;;;28.00;18.83;;;7.80;99.90;;;;;;5037418;28;20451;-51
2020/12/17 09:19:33;;;;;;;34.07;19.53;;;7.50;99.90;;;;;;5053002;28;20403;-50
2020/12/17 09:22:01;;;;;;;29.93;19.60;;;7.90;99.90;;;;;;5052688;28;20495;-50
2020/12/17 09:24:28;;;;;;;31.40;19.57;;;7.90;99.90;;;;;;5053029;28;20453;-49
2020/12/17 09:26:55;;;;;;;27.97;18.10;;;7.80;99.90;;;;;;5053040;28;20426;-50
2020/12/17 09:29:22;;;;;;;29.70;20.20;;;8.10;99.90;;;;;;5052489;28;20436;-49
2020/12/17 09:31:49;;;;;;;27.77;18.97;;;8.00;99.90;;;;;;5053296;28;20456;-49
2020/12/17 09:34:17;;;;;;;27.80;19.73;;;8.20;99.90;;;;;;5052865;28;20437;-49
2020/12/17 09:36:45;;;;;;;34.53;20.80;;;8.20;99.90;;;;;;5052371;28;20933;-49
2020/12/17 09:39:15;;;;;;;24.77;18.67;;;8.20;99.90;;;;;;5052412;28;20953;-50
2020/12/17 09:41:54;;;;;;;24.03;17.10;;;8.10;99.90;;;;;;5052238;28;20542;-49
2020/12/17 09:44:29;;;;;;;25.80;17.80;;;8.20;99.90;;;;;;5051750;28;20441;-49
2020/12/17 09:46:57;;;;;;;25.90;17.97;;;8.10;99.90;;;;;;5052108;28;20464;-49
2020/12/17 09:49:28;;;;;;;25.73;18.00;;;8.10;99.90;;;;;;5052315;28;20457;-50
2020/12/17 09:52:09;;;;;;;24.80;17.77;;;8.30;99.90;;;;;;5052348;28;20432;-50
2020/12/17 09:54:42;;;;;;;25.70;18.67;;;8.10;99.90;;;;;;5051602;28;20535;-49
2020/12/17 09:57:12;;;;;;;26.60;18.93;;;8.10;99.90;;;;;;5051756;28;20451;-49
2020/12/17 09:59:40;;;;;;;27.10;19.00;;;7.90;99.90;;;;;;5052175;28;20426;-49
2020/12/17 10:02:08;;;;;;;27.70;18.50;;;8.20;99.90;;;;;;5051347;28;20484;-48
2020/12/17 10:04:35;;;;;;;26.33;18.43;;;8.00;99.90;;;;;;5051825;28;20453;-50
2020/12/17 10:07:02;;;;;;;27.63;16.93;;;8.50;99.90;;;;;;5049930;28;20855;-49
2020/12/17 10:09:28;;;;;;;24.00;17.57;;;8.20;99.90;;;;;;5052530;28;20946;-50
2020/12/17 10:11:57;;;;;;;28.10;18.77;;;8.60;99.90;;;;;;5071625;28;20427;-49
2020/12/17 10:14:25;;;;;;;25.40;18.03;;;8.50;99.90;;;;;;5071347;28;20460;-49
2020/12/17 10:16:56;;;;;;;27.70;18.40;;;8.20;99.90;;;;;;5071450;28;20426;-49
2020/12/17 10:19:23;;;;;;;25.03;17.70;;;8.30;99.90;;;;;;5071893;28;20437;-49
2020/12/17 10:21:50;;;;;;;26.50;18.43;;;8.50;99.90;;;;;;5071893;28;20490;-52
2020/12/17 10:24:17;;;;;;;29.60;19.10;;;8.30;99.90;;;;;;5071549;28;20521;-49
2020/12/17 10:26:43;;;;;;;29.67;20.30;;;8.40;99.90;;;;;;5072572;28;20438;-50
2020/12/17 10:29:11;;;;;;;25.43;17.03;;;8.40;99.90;;;;;;5072661;28;20456;-54
2020/12/17 10:31:37;;;;;;;26.70;18.57;;;8.50;99.90;;;;;;5056601;28;20540;-50
2020/12/17 10:34:06;;;;;;;24.10;17.37;;;8.50;99.90;;;;;;5052602;28;20915;-51
2020/12/17 10:36:37;;;;;;;30.47;19.40;;;8.20;99.90;;;;;;5052603;28;20492;-51
2020/12/17 10:39:04;;;;;;;24.80;18.00;;;8.40;99.90;;;;;;5052334;28;20493;-50
2020/12/17 10:41:30;;;;;;;31.50;20.40;;;8.50;99.90;;;;;;5052743;28;20542;-51
2020/12/17 10:43:57;;;;;;;24.83;18.67;;;8.50;99.90;;;;;;5052117;28;20527;-50
2020/12/17 10:46:25;;;;;;;31.43;18.00;;;8.40;99.90;;;;;;5051391;28;20445;-50
2020/12/17 10:48:51;;;;;;;25.10;18.17;;;8.50;99.90;;;;;;5051653;28;20489;-50
2020/12/17 10:51:18;;;;;;;28.77;18.30;;;8.60;99.90;;;;;;5051701;28;20495;-50
2020/12/17 10:53:45;;;;;;;24.37;17.50;;;8.30;99.90;;;;;;5051346;28;20437;-50
2020/12/17 10:56:12;;;;;;;27.33;18.83;;;8.80;99.90;;;;;;5051391;28;20455;-48
2020/12/17 10:58:40;;;;;;;28.03;19.10;;;8.80;99.90;;;;;;5049918;28;20473;-48
2020/12/17 11:01:07;;;;;;;28.30;18.13;;;8.60;99.90;;;;;;5061757;28;20528;-48
2020/12/17 11:03:34;;;;;;;23.67;17.47;;;8.00;99.90;;;;;;5071214;28;20443;-48
2020/12/17 11:06:01;;;;;;;24.53;18.10;;;8.60;99.90;;;;;;5071514;28;20532;-48
2020/12/17 11:08:28;;;;;;;24.03;17.67;;;8.60;99.90;;;;;;5070799;28;20474;-49
2020/12/17 11:10:55;;;;;;;25.57;17.50;;;8.50;99.90;;;;;;5071139;28;20425;-48
2020/12/17 11:13:22;;;;;;;25.90;18.57;;;8.80;99.90;;;;;;5065635;28;20492;-49
2020/12/17 11:15:49;;;;;;;28.10;18.17;;;8.70;99.90;;;;;;5050023;28;20465;-50
2020/12/17 11:18:15;;;;;;;28.43;19.17;;;8.60;99.90;;;;;;5052188;28;20457;-51
2020/12/17 11:20:43;;;;;;;24.53;17.43;;;8.60;99.90;;;;;;5053909;28;20453;-49
2020/12/17 11:23:10;;;;;;;24.40;17.07;;;8.70;99.90;;;;;;5054412;28;20547;-51
2020/12/17 11:25:37;;;;;;;24.97;17.70;;;8.60;99.90;;;;;;5055057;28;20433;-49
2020/12/17 11:28:04;;;;;;;23.10;17.03;;;9.00;99.90;;;;;;5055146;28;20865;-48
2020/12/17 11:30:31;;;;;;;27.63;18.30;;;8.50;99.90;;;;;;5057378;28;20543;-47
2020/12/17 11:32:58;;;;;;;23.73;17.67;;;8.90;99.90;;;;;;5054921;28;20403;-49
2020/12/17 11:35:25;;;;;;;25.50;17.73;;;8.50;99.90;;;;;;5054997;28;20497;-48
2020/12/17 11:37:52;;;;;;;24.43;15.70;;;8.90;99.90;;;;;;5054753;28;20462;-48
2020/12/17 11:40:19;;;;;;;25.17;17.87;;;8.80;99.90;;;;;;5054784;28;20459;-49
2020/12/17 11:42:46;;;;;;;24.10;16.90;;;8.80;99.90;;;;;;5054147;28;20981;-50
2020/12/17 11:45:13;;;;;;;20.37;15.70;;;8.80;99.90;;;;;;5054583;28;20484;-49
2020/12/17 11:47:40;;;;;;;23.37;17.17;;;8.90;99.90;;;;;;5054701;28;20457;-49
2020/12/17 11:50:07;;;;;;;25.93;17.30;;;8.90;99.90;;;;;;5053916;28;20452;-49
2020/12/17 11:52:33;;;;;;;25.60;16.60;;;8.80;99.90;;;;;;5054219;28;20437;-49
2020/12/17 11:55:01;;;;;;;21.67;15.03;;;8.90;99.90;;;;;;5052920;28;20446;-49
2020/12/17 11:57:28;;;;;;;34.70;17.40;;;9.10;99.90;;;;;;5055299;28;20978;-48
2020/12/17 11:59:54;;;;;;;22.13;15.80;;;8.90;99.90;;;;;;5055414;28;20434;-51
2020/12/17 12:02:21;;;;;;;24.67;16.80;;;9.00;99.90;;;;;;5072709;28;20476;-50
2020/12/17 12:04:48;;;;;;;25.53;16.77;;;9.00;99.90;;;;;;5075336;28;20430;-47
2020/12/17 12:07:14;;;;;;;21.77;15.13;;;9.00;99.90;;;;;;5075081;28;20478;-47
2020/12/17 12:09:41;;;;;;;25.70;17.43;;;9.10;99.90;;;;;;5075624;28;20509;-49
2020/12/17 12:12:09;;;;;;;25.30;16.57;;;9.00;99.90;;;;;;5075023;28;20477;-48
2020/12/17 12:14:37;;;;;;;24.50;16.60;;;9.20;99.90;;;;;;5072419;28;20449;-48
2020/12/17 12:17:04;;;;;;;23.60;16.93;;;9.00;99.90;;;;;;5073656;28;20918;-50
2020/12/17 12:19:31;;;;;;;23.30;16.57;;;9.10;99.90;;;;;;5074004;28;20429;-50
2020/12/17 12:21:57;;;;;;;24.17;16.50;;;9.00;99.90;;;;;;5072388;28;20484;-48
2020/12/17 12:24:24;;;;;;;23.23;16.13;;;9.30;99.90;;;;;;5072191;28;20449;-48
2020/12/17 12:26:51;;;;;;;24.37;17.53;;;9.10;99.90;;;;;;5074072;28;20487;-49
2020/12/17 12:29:18;;;;;;;21.17;15.67;;;9.30;99.90;;;;;;5073299;28;20863;-49
2020/12/17 12:31:45;;;;;;;21.90;16.00;;;9.20;99.90;;;;;;5073978;28;20460;-49
2020/12/17 12:34:11;;;;;;;22.93;15.50;;;9.30;99.90;;;;;;5075462;28;20438;-47
2020/12/17 12:36:38;;;;;;;21.07;15.80;;;9.20;99.90;;;;;;5073682;28;20430;-48
2020/12/17 12:39:05;;;;;;;21.27;15.60;;;9.30;99.90;;;;;;5065856;28;20451;-50
2020/12/17 12:41:31;;;;;;;18.80;14.67;;;9.50;99.90;;;;;;5065847;28;20477;-49